Time;durP1;ratioP1;P1;durP2;ratioP2;P2;SDS_P1;SDS_P2;PMS_P1;PMS_P2;Temp;Humidity;BMP_temperature;BMP_pressure;BME280_temperature;BME280_humidity;BME280_pressure;Samples;Min_cycle;Max_cycle;Signal;HPM_P1;HPM_P2
2024/01/15 00:01:21;;;;;;;9.77;5.03;;;;;;;;;;5077183;28;20210;-73
2024/01/15 00:03:47;;;;;;;11.80;6.03;;;;;;;;;;5080264;28;20202;-73
2024/01/15 00:06:13;;;;;;;10.93;5.70;;;;;;;;;;5078341;28;20178;-74
2024/01/15 00:08:39;;;;;;;10.90;5.70;;;;;;;;;;5065560;28;20166;-73
2024/01/15 00:11:05;;;;;;;10.57;5.60;;;;;;;;;;5089171;28;20275;-75
2024/01/15 00:13:31;;;;;;;9.67;5.80;;;;;;;;;;5082583;28;22324;-76
2024/01/15 00:15:57;;;;;;;8.37;5.50;;;;;;;;;;5088327;28;20228;-72
2024/01/15 00:18:23;;;;;;;20.37;9.07;;;;;;;;;;5087999;28;20165;-73
2024/01/15 00:20:49;;;;;;;10.20;6.27;;;;;;;;;;5089271;28;20284;-75
2024/01/15 00:23:15;;;;;;;10.93;5.57;;;;;;;;;;5061848;28;20809;-73
2024/01/15 00:25:41;;;;;;;10.03;5.53;;;;;;;;;;5080420;28;20227;-72
2024/01/15 00:28:07;;;;;;;11.33;6.13;;;;;;;;;;5078405;28;20719;-72
2024/01/15 00:30:33;;;;;;;9.60;5.47;;;;;;;;;;5075421;28;20239;-73
2024/01/15 00:32:59;;;;;;;9.60;5.70;;;;;;;;;;5080746;28;20178;-72
2024/01/15 00:35:25;;;;;;;8.73;5.30;;;;;;;;;;5077086;28;20203;-72
2024/01/15 00:37:51;;;;;;;10.10;5.67;;;;;;;;;;5072285;28;20217;-72
2024/01/15 00:40:17;;;;;;;10.47;5.63;;;;;;;;;;5073809;28;20210;-71
2024/01/15 00:42:43;;;;;;;9.80;5.50;;;;;;;;;;5079454;28;20211;-72
2024/01/15 00:45:10;;;;;;;8.77;6.00;;;;;;;;;;5078525;28;20174;-72
2024/01/15 00:47:36;;;;;;;7.93;5.20;;;;;;;;;;5076898;28;20174;-72
2024/01/15 00:50:02;;;;;;;11.43;5.30;;;;;;;;;;5076431;28;20253;-72
2024/01/15 00:52:28;;;;;;;11.90;5.00;;;;;;;;;;5076584;28;20229;-71
2024/01/15 00:54:54;;;;;;;10.03;5.47;;;;;;;;;;5078234;28;20326;-72
2024/01/15 00:57:20;;;;;;;11.43;5.47;;;;;;;;;;5079197;28;20655;-72
2024/01/15 00:59:46;;;;;;;10.43;5.27;;;;;;;;;;5075864;28;20167;-72
2024/01/15 01:02:12;;;;;;;10.57;5.13;;;;;;;;;;5076224;28;20247;-72
2024/01/15 01:04:38;;;;;;;10.70;5.07;;;;;;;;;;5068274;28;20288;-72
2024/01/15 01:07:04;;;;;;;10.47;5.70;;;;;;;;;;5061132;28;20210;-72
2024/01/15 01:09:30;;;;;;;8.97;5.03;;;;;;;;;;5075100;28;20249;-72
2024/01/15 01:11:56;;;;;;;10.77;4.97;;;;;;;;;;5068544;28;20221;-72
2024/01/15 01:14:22;;;;;;;9.30;5.33;;;;;;;;;;5076339;28;20222;-72
2024/01/15 01:16:48;;;;;;;9.57;5.80;;;;;;;;;;5074153;28;20212;-72
2024/01/15 01:19:15;;;;;;;12.53;5.83;;;;;;;;;;5055912;28;20251;-72
2024/01/15 01:21:41;;;;;;;11.87;5.60;;;;;;;;;;5075886;28;20214;-72
2024/01/15 01:24:07;;;;;;;10.70;5.83;;;;;;;;;;5069279;28;20191;-72
2024/01/15 01:26:33;;;;;;;13.37;5.47;;;;;;;;;;5057167;28;20252;-72
2024/01/15 01:28:59;;;;;;;8.77;5.43;;;;;;;;;;5079495;28;20211;-71
2024/01/15 01:31:25;;;;;;;10.97;5.83;;;;;;;;;;5075061;28;20676;-73
2024/01/15 01:33:51;;;;;;;10.53;6.00;;;;;;;;;;5079347;28;20202;-71
2024/01/15 01:36:17;;;;;;;16.80;5.93;;;;;;;;;;5077382;28;20193;-72
2024/01/15 01:38:43;;;;;;;13.27;5.93;;;;;;;;;;5080535;28;20182;-72
2024/01/15 01:41:10;;;;;;;10.93;5.63;;;;;;;;;;5086838;28;20610;-71
2024/01/15 01:43:36;;;;;;;9.57;5.50;;;;;;;;;;5087645;28;20204;-72
2024/01/15 01:46:03;;;;;;;10.97;5.60;;;;;;;;;;5086632;28;20214;-72
2024/01/15 01:48:29;;;;;;;11.03;5.67;;;;;;;;;;5083099;28;20229;-71
2024/01/15 01:50:57;;;;;;;10.60;6.20;;;;;;;;;;5091203;28;20226;-72
2024/01/15 01:53:24;;;;;;;13.27;6.33;;;;;;;;;;5090634;28;20294;-73
2024/01/15 01:55:51;;;;;;;13.77;6.87;;;;;;;;;;5070547;28;20270;-74
2024/01/15 01:58:17;;;;;;;11.67;6.37;;;;;;;;;;5081324;28;20216;-72
2024/01/15 02:00:43;;;;;;;14.00;6.90;;;;;;;;;;5085573;28;20711;-71
2024/01/15 02:03:09;;;;;;;11.87;5.67;;;;;;;;;;5072143;28;20272;-71
2024/01/15 02:05:36;;;;;;;12.03;6.13;;;;;;;;;;5071397;28;20184;-71
2024/01/15 02:08:02;;;;;;;10.80;5.70;;;;;;;;;;5079253;28;20286;-71
2024/01/15 02:10:28;;;;;;;11.67;5.80;;;;;;;;;;5076010;28;20211;-71
2024/01/15 02:12:54;;;;;;;12.73;5.97;;;;;;;;;;5062521;28;20729;-72
2024/01/15 02:15:20;;;;;;;11.57;5.23;;;;;;;;;;5080168;28;20179;-72
2024/01/15 02:17:58;;;;;;;10.83;5.10;;;;;;;;;;5080753;28;20595;-73
2024/01/15 02:20:24;;;;;;;12.53;5.33;;;;;;;;;;5083076;28;20258;-72
2024/01/15 02:22:50;;;;;;;8.77;5.13;;;;;;;;;;5076724;28;20203;-71
2024/01/15 02:25:16;;;;;;;8.77;5.50;;;;;;;;;;5074797;28;20227;-72
2024/01/15 02:27:44;;;;;;;10.77;5.23;;;;;;;;;;5081351;28;20203;-72
2024/01/15 02:30:11;;;;;;;8.37;4.03;;;;;;;;;;5082060;28;20172;-72
2024/01/15 02:32:37;;;;;;;10.40;4.83;;;;;;;;;;5055439;28;20562;-72
2024/01/15 02:35:03;;;;;;;8.93;4.50;;;;;;;;;;5085505;28;20232;-72
2024/01/15 02:37:29;;;;;;;7.40;4.27;;;;;;;;;;5058570;28;20429;-72
2024/01/15 02:39:55;;;;;;;7.00;3.63;;;;;;;;;;5079247;28;20285;-72
2024/01/15 02:42:21;;;;;;;9.30;4.47;;;;;;;;;;5068640;28;20195;-73
2024/01/15 02:44:48;;;;;;;11.40;4.33;;;;;;;;;;5068788;28;20174;-72
2024/01/15 02:47:14;;;;;;;9.23;4.17;;;;;;;;;;5079933;28;20231;-73
2024/01/15 02:49:41;;;;;;;9.90;4.53;;;;;;;;;;5078888;28;20202;-73
2024/01/15 02:52:07;;;;;;;7.50;3.93;;;;;;;;;;5081991;28;20256;-72
2024/01/15 02:54:33;;;;;;;9.70;4.17;;;;;;;;;;5078021;28;20203;-72
2024/01/15 02:56:59;;;;;;;7.63;4.43;;;;;;;;;;5078211;28;20570;-72
2024/01/15 02:59:25;;;;;;;7.90;4.07;;;;;;;;;;5078548;28;20615;-73
2024/01/15 03:01:51;;;;;;;7.13;4.20;;;;;;;;;;5081716;28;20276;-74
2024/01/15 03:04:17;;;;;;;9.63;4.63;;;;;;;;;;5081350;28;20233;-73
2024/01/15 03:06:43;;;;;;;10.83;4.50;;;;;;;;;;5077135;28;20206;-72
2024/01/15 03:09:09;;;;;;;6.83;3.83;;;;;;;;;;5059944;28;20261;-71
2024/01/15 03:11:38;;;;;;;7.40;4.30;;;;;;;;;;5075615;28;20199;-72
2024/01/15 03:14:04;;;;;;;9.23;4.00;;;;;;;;;;5060834;28;20201;-73
2024/01/15 03:16:30;;;;;;;8.00;3.57;;;;;;;;;;5078601;28;20221;-72
2024/01/15 03:18:56;;;;;;;6.90;3.57;;;;;;;;;;5080093;28;20209;-72
2024/01/15 03:21:22;;;;;;;6.73;3.53;;;;;;;;;;5069112;28;20555;-73
2024/01/15 03:23:48;;;;;;;10.93;3.53;;;;;;;;;;5069486;28;20179;-73
2024/01/15 03:26:15;;;;;;;8.77;4.37;;;;;;;;;;5047294;28;20213;-72
2024/01/15 03:28:41;;;;;;;8.70;4.10;;;;;;;;;;5077672;28;20224;-72
2024/01/15 03:31:08;;;;;;;8.50;2.93;;;;;;;;;;5062816;28;20339;-73
2024/01/15 03:33:34;;;;;;;7.13;3.33;;;;;;;;;;5081110;28;20208;-73
2024/01/15 03:36:00;;;;;;;7.30;3.50;;;;;;;;;;5079930;28;20174;-72
2024/01/15 03:38:28;;;;;;;7.67;3.53;;;;;;;;;;5078685;28;20218;-72
2024/01/15 03:40:54;;;;;;;7.83;4.23;;;;;;;;;;5058197;28;20218;-72
2024/01/15 03:43:20;;;;;;;8.20;3.70;;;;;;;;;;5079923;28;20609;-72
2024/01/15 03:45:46;;;;;;;9.90;4.03;;;;;;;;;;5047294;28;20203;-72
2024/01/15 03:48:12;;;;;;;6.67;3.30;;;;;;;;;;5074961;28;20184;-73
2024/01/15 03:50:38;;;;;;;6.47;3.63;;;;;;;;;;5068777;28;20179;-73
2024/01/15 03:53:04;;;;;;;5.93;3.43;;;;;;;;;;5056433;28;20218;-73
2024/01/15 03:55:30;;;;;;;11.53;4.00;;;;;;;;;;5066523;28;20783;-72
2024/01/15 03:57:56;;;;;;;12.13;4.43;;;;;;;;;;5069270;28;20238;-72
2024/01/15 04:00:22;;;;;;;9.63;3.73;;;;;;;;;;5077639;28;20209;-73
2024/01/15 04:02:48;;;;;;;8.53;3.30;;;;;;;;;;5069821;28;20569;-73
2024/01/15 04:05:14;;;;;;;6.57;2.63;;;;;;;;;;5078268;28;20224;-74
2024/01/15 04:07:40;;;;;;;8.30;3.23;;;;;;;;;;5072274;28;20198;-72
2024/01/15 04:10:06;;;;;;;7.03;3.20;;;;;;;;;;5070618;28;20289;-72
2024/01/15 04:12:32;;;;;;;5.17;2.93;;;;;;;;;;5075644;28;20212;-73
2024/01/15 04:14:58;;;;;;;7.43;3.30;;;;;;;;;;5067866;28;20187;-73
2024/01/15 04:17:24;;;;;;;8.80;3.70;;;;;;;;;;5075436;28;20206;-72
2024/01/15 04:19:50;;;;;;;7.20;3.37;;;;;;;;;;5055010;28;20210;-73
2024/01/15 04:22:16;;;;;;;7.03;3.17;;;;;;;;;;5076718;28;20206;-73
2024/01/15 04:24:42;;;;;;;7.90;3.13;;;;;;;;;;5072351;28;20309;-72
2024/01/15 04:27:08;;;;;;;6.23;3.10;;;;;;;;;;5075091;28;20282;-71
2024/01/15 04:29:34;;;;;;;7.90;2.83;;;;;;;;;;5073997;28;20523;-72
2024/01/15 04:32:00;;;;;;;8.90;3.17;;;;;;;;;;5075147;28;20212;-73
2024/01/15 04:34:26;;;;;;;5.77;2.70;;;;;;;;;;5079767;28;20217;-73
2024/01/15 04:36:52;;;;;;;6.20;3.20;;;;;;;;;;5074891;28;20217;-73
2024/01/15 04:39:18;;;;;;;8.83;2.63;;;;;;;;;;5073373;28;20178;-72
2024/01/15 04:41:44;;;;;;;8.53;3.23;;;;;;;;;;5074084;28;20209;-73
2024/01/15 04:44:10;;;;;;;6.70;2.63;;;;;;;;;;5077500;28;20702;-72
2024/01/15 04:46:36;;;;;;;5.07;2.73;;;;;;;;;;5072679;28;20251;-72
2024/01/15 04:49:02;;;;;;;5.17;2.07;;;;;;;;;;5058777;28;20213;-71
2024/01/15 04:51:28;;;;;;;10.10;2.60;;;;;;;;;;5071309;28;20660;-72
2024/01/15 04:53:54;;;;;;;10.37;3.07;;;;;;;;;;5073573;28;20178;-72
2024/01/15 04:56:21;;;;;;;5.77;1.93;;;;;;;;;;5074308;28;20202;-73
2024/01/15 04:58:46;;;;;;;6.67;2.33;;;;;;;;;;5073155;28;20205;-73
2024/01/15 05:01:12;;;;;;;5.57;2.60;;;;;;;;;;5058820;28;20472;-73
2024/01/15 05:03:39;;;;;;;4.90;2.20;;;;;;;;;;5073111;28;20221;-73
2024/01/15 05:06:05;;;;;;;7.03;2.10;;;;;;;;;;5073712;28;20268;-72
2024/01/15 05:08:31;;;;;;;5.63;2.10;;;;;;;;;;5072146;28;20264;-72
2024/01/15 05:10:57;;;;;;;6.60;2.73;;;;;;;;;;5074734;28;20706;-71
2024/01/15 05:13:23;;;;;;;7.17;2.27;;;;;;;;;;5078667;28;20204;-72
2024/01/15 05:15:49;;;;;;;3.03;1.60;;;;;;;;;;5075108;28;20717;-74
2024/01/15 05:18:15;;;;;;;4.50;2.33;;;;;;;;;;5070333;28;20179;-72
2024/01/15 05:20:42;;;;;;;5.63;1.47;;;;;;;;;;5076433;28;20209;-74
2024/01/15 05:23:08;;;;;;;7.03;1.93;;;;;;;;;;5076623;28;20236;-72
2024/01/15 05:25:34;;;;;;;5.73;1.93;;;;;;;;;;5076601;28;20207;-72
2024/01/15 05:28:00;;;;;;;5.07;1.40;;;;;;;;;;5062156;28;20202;-74
2024/01/15 05:30:26;;;;;;;5.83;1.83;;;;;;;;;;5075736;28;20664;-73
2024/01/15 05:32:52;;;;;;;5.13;1.60;;;;;;;;;;5070282;28;20220;-72
2024/01/15 05:35:18;;;;;;;4.93;2.03;;;;;;;;;;5071081;28;20220;-72
2024/01/15 05:37:45;;;;;;;5.87;2.13;;;;;;;;;;5069109;28;20283;-72
2024/01/15 05:40:12;;;;;;;4.60;1.70;;;;;;;;;;5074898;28;20588;-71
2024/01/15 05:42:39;;;;;;;5.37;1.70;;;;;;;;;;5052050;28;20222;-71
2024/01/15 05:45:05;;;;;;;5.17;1.60;;;;;;;;;;5070249;28;20182;-73
2024/01/15 05:47:31;;;;;;;5.30;1.67;;;;;;;;;;5077378;28;20217;-73
2024/01/15 05:49:57;;;;;;;11.87;1.87;;;;;;;;;;5058579;28;20224;-73
2024/01/15 05:52:23;;;;;;;4.07;1.70;;;;;;;;;;5071713;28;20226;-73
2024/01/15 05:54:50;;;;;;;2.60;1.23;;;;;;;;;;5076923;28;20214;-71
2024/01/15 05:57:16;;;;;;;4.73;2.00;;;;;;;;;;5071857;28;20271;-72
2024/01/15 05:59:43;;;;;;;4.63;1.17;;;;;;;;;;5074827;28;20253;-72
2024/01/15 06:02:09;;;;;;;3.00;1.33;;;;;;;;;;5067507;28;20754;-74
2024/01/15 06:04:35;;;;;;;5.57;1.47;;;;;;;;;;5078629;28;20220;-73
2024/01/15 06:07:01;;;;;;;5.13;1.57;;;;;;;;;;5068766;28;20220;-72
2024/01/15 06:09:28;;;;;;;5.17;1.53;;;;;;;;;;5072888;28;20211;-71
2024/01/15 06:11:54;;;;;;;6.50;1.90;;;;;;;;;;5071050;28;20255;-73
2024/01/15 06:14:20;;;;;;;4.67;1.77;;;;;;;;;;5075616;28;20209;-72
2024/01/15 06:16:46;;;;;;;2.40;1.20;;;;;;;;;;5074264;28;20753;-72
2024/01/15 06:19:12;;;;;;;7.43;1.50;;;;;;;;;;5053903;28;20609;-72
2024/01/15 06:21:38;;;;;;;3.53;1.60;;;;;;;;;;5051334;28;20219;-72
2024/01/15 06:24:04;;;;;;;6.27;1.27;;;;;;;;;;5071025;28;20553;-77
2024/01/15 06:26:31;;;;;;;3.47;1.17;;;;;;;;;;5073149;28;20218;-70
2024/01/15 06:28:57;;;;;;;3.13;1.27;;;;;;;;;;5054606;28;20214;-73
2024/01/15 06:31:23;;;;;;;4.03;1.20;;;;;;;;;;5071687;28;20207;-75
2024/01/15 06:33:49;;;;;;;5.93;1.50;;;;;;;;;;5068358;28;20284;-73
2024/01/15 06:36:18;;;;;;;5.70;1.53;;;;;;;;;;5052433;28;20183;-73
2024/01/15 06:38:44;;;;;;;8.73;2.80;;;;;;;;;;5064791;28;20175;-73
2024/01/15 06:41:10;;;;;;;2.53;1.30;;;;;;;;;;5074601;28;20231;-73
2024/01/15 06:43:36;;;;;;;7.33;1.67;;;;;;;;;;5072535;28;20210;-72
2024/01/15 06:46:03;;;;;;;8.67;1.93;;;;;;;;;;5054382;28;20240;-72
2024/01/15 06:48:29;;;;;;;6.70;1.97;;;;;;;;;;5053610;28;20208;-73
2024/01/15 06:50:55;;;;;;;4.60;1.47;;;;;;;;;;5068130;28;20237;-74
2024/01/15 06:53:21;;;;;;;3.87;1.63;;;;;;;;;;5073785;28;20206;-73
2024/01/15 06:55:47;;;;;;;8.10;1.20;;;;;;;;;;5057299;28;20213;-73
2024/01/15 06:58:13;;;;;;;4.47;1.43;;;;;;;;;;5051590;28;20205;-74
2024/01/15 07:00:40;;;;;;;4.87;2.07;;;;;;;;;;5071162;28;20255;-73
2024/01/15 07:03:07;;;;;;;5.33;1.10;;;;;;;;;;5071809;28;20186;-73
2024/01/15 07:05:33;;;;;;;8.17;1.47;;;;;;;;;;5071390;28;20218;-73
2024/01/15 07:07:59;;;;;;;7.23;0.93;;;;;;;;;;5061159;28;20225;-74
2024/01/15 07:10:26;;;;;;;2.60;1.10;;;;;;;;;;5073002;28;20680;-73
2024/01/15 07:12:52;;;;;;;5.07;1.20;;;;;;;;;;5080437;28;20252;-72
2024/01/15 07:15:18;;;;;;;2.77;0.90;;;;;;;;;;5083440;28;20230;-72
2024/01/15 07:17:44;;;;;;;6.03;1.17;;;;;;;;;;5067630;28;20717;-74
2024/01/15 07:20:10;;;;;;;5.47;1.03;;;;;;;;;;5082297;28;20222;-73
2024/01/15 07:22:37;;;;;;;7.03;1.10;;;;;;;;;;5081258;28;20205;-71
2024/01/15 07:25:04;;;;;;;4.43;1.37;;;;;;;;;;5076274;28;20207;-72
2024/01/15 07:27:31;;;;;;;6.53;1.07;;;;;;;;;;5071509;28;20208;-73
2024/01/15 07:29:57;;;;;;;2.93;1.03;;;;;;;;;;5077347;28;20187;-70
2024/01/15 07:32:23;;;;;;;9.63;1.23;;;;;;;;;;5080677;28;20358;-74
2024/01/15 07:34:49;;;;;;;6.23;1.20;;;;;;;;;;5077004;28;20306;-72
2024/01/15 07:37:15;;;;;;;8.27;2.00;;;;;;;;;;5053729;28;20270;-72
2024/01/15 07:39:41;;;;;;;2.20;1.70;;;;;;;;;;5076366;28;20230;-72
2024/01/15 07:42:07;;;;;;;4.73;1.70;;;;;;;;;;5077763;28;20261;-71
2024/01/15 07:44:33;;;;;;;7.83;1.57;;;;;;;;;;5077959;28;20686;-72
2024/01/15 07:46:59;;;;;;;7.47;1.53;;;;;;;;;;5076880;28;20244;-73
2024/01/15 07:49:26;;;;;;;6.07;2.43;;;;;;;;;;5073851;28;20815;-73
2024/01/15 07:51:52;;;;;;;2.10;1.03;;;;;;;;;;5076937;28;20217;-72
2024/01/15 07:54:18;;;;;;;10.73;1.57;;;;;;;;;;5057355;28;20363;-71
2024/01/15 07:56:56;;;;;;;4.77;1.50;;;;;;;;;;5073898;28;20257;-73
2024/01/15 07:59:22;;;;;;;4.43;1.23;;;;;;;;;;5052221;28;20203;-71
2024/01/15 08:01:48;;;;;;;6.53;1.13;;;;;;;;;;5072226;28;20218;-70
2024/01/15 08:04:14;;;;;;;4.57;1.13;;;;;;;;;;5077168;28;20276;-73
2024/01/15 08:06:40;;;;;;;3.53;1.43;;;;;;;;;;5072780;28;20223;-73
2024/01/15 08:09:08;;;;;;;8.10;1.13;;;;;;;;;;5075963;28;20189;-73
2024/01/15 08:11:34;;;;;;;5.17;1.23;;;;;;;;;;5062456;28;20214;-73
2024/01/15 08:14:00;;;;;;;11.27;1.57;;;;;;;;;;5076899;28;20214;-72
2024/01/15 08:16:27;;;;;;;7.33;1.30;;;;;;;;;;5077349;28;20247;-73
2024/01/15 08:18:53;;;;;;;4.73;1.53;;;;;;;;;;5077387;28;20210;-71
2024/01/15 08:21:19;;;;;;;5.37;1.20;;;;;;;;;;5058162;28;20263;-72
2024/01/15 08:23:45;;;;;;;2.07;0.93;;;;;;;;;;5082002;28;20568;-72
2024/01/15 08:26:11;;;;;;;8.57;1.47;;;;;;;;;;5061982;28;20233;-73
2024/01/15 08:28:37;;;;;;;5.27;1.33;;;;;;;;;;5071655;28;20288;-71
2024/01/15 08:31:03;;;;;;;7.13;1.67;;;;;;;;;;5076782;28;20224;-72
2024/01/15 08:33:29;;;;;;;4.70;1.43;;;;;;;;;;5079716;28;20596;-72
2024/01/15 08:35:55;;;;;;;5.07;1.20;;;;;;;;;;5056118;28;20202;-73
2024/01/15 08:38:22;;;;;;;5.23;1.30;;;;;;;;;;5080189;28;20214;-72
2024/01/15 08:40:48;;;;;;;3.53;1.27;;;;;;;;;;5076461;28;20267;-71
2024/01/15 08:43:14;;;;;;;9.87;1.33;;;;;;;;;;5074752;28;20206;-72
2024/01/15 08:45:40;;;;;;;6.53;1.27;;;;;;;;;;5077160;28;20243;-72
2024/01/15 08:48:06;;;;;;;5.80;1.00;;;;;;;;;;5072557;28;20178;-73
2024/01/15 08:50:33;;;;;;;3.13;1.10;;;;;;;;;;5072391;28;20206;-73
2024/01/15 08:52:59;;;;;;;4.80;1.10;;;;;;;;;;5076946;28;20305;-71
2024/01/15 08:55:25;;;;;;;5.47;1.13;;;;;;;;;;5076186;28;20580;-73
2024/01/15 08:57:51;;;;;;;3.90;1.17;;;;;;;;;;5078244;28;20313;-72
2024/01/15 09:00:18;;;;;;;3.07;1.00;;;;;;;;;;5075145;28;20626;-72
2024/01/15 09:02:44;;;;;;;2.90;0.93;;;;;;;;;;5061085;28;20201;-72
2024/01/15 09:05:10;;;;;;;6.67;1.07;;;;;;;;;;5072417;28;20211;-72
2024/01/15 09:07:36;;;;;;;3.40;0.83;;;;;;;;;;5054915;28;20760;-72
2024/01/15 09:10:03;;;;;;;3.83;0.80;;;;;;;;;;5075811;28;20301;-74
2024/01/15 09:12:29;;;;;;;6.37;1.27;;;;;;;;;;5078701;28;20221;-73
2024/01/15 09:14:55;;;;;;;8.93;1.60;;;;;;;;;;5077252;28;20185;-73
2024/01/15 09:17:23;;;;;;;4.60;1.30;;;;;;;;;;5074447;28;20278;-73
2024/01/15 09:19:49;;;;;;;3.27;0.80;;;;;;;;;;5076337;28;20227;-72
2024/01/15 09:22:18;;;;;;;7.90;1.93;;;;;;;;;;5075464;28;20213;-72
2024/01/15 09:24:45;;;;;;;6.40;0.97;;;;;;;;;;5072712;28;20705;-72
2024/01/15 09:27:11;;;;;;;2.63;0.97;;;;;;;;;;5057141;28;20182;-74
2024/01/15 09:29:39;;;;;;;8.23;1.50;;;;;;;;;;5076465;28;20265;-71
2024/01/15 09:32:07;;;;;;;3.23;1.67;;;;;;;;;;5075330;28;20214;-73
2024/01/15 09:34:33;;;;;;;1.87;1.17;;;;;;;;;;5076581;28;20689;-72
2024/01/15 09:37:05;;;;;;;4.30;0.97;;;;;;;;;;5066115;28;20728;-72
2024/01/15 09:39:31;;;;;;;4.77;1.13;;;;;;;;;;5070420;28;20586;-71
2024/01/15 09:42:00;;;;;;;4.00;1.07;;;;;;;;;;5079346;28;20214;-70
2024/01/15 09:44:27;;;;;;;1.97;0.93;;;;;;;;;;5078919;28;20254;-73
2024/01/15 09:46:54;;;;;;;7.03;1.27;;;;;;;;;;5080111;28;20300;-73
2024/01/15 09:49:20;;;;;;;6.93;1.10;;;;;;;;;;5075132;28;20221;-75
2024/01/15 09:51:46;;;;;;;3.13;1.00;;;;;;;;;;5078272;28;20205;-74
2024/01/15 09:54:17;;;;;;;7.30;1.10;;;;;;;;;;5057165;28;20625;-73
2024/01/15 09:56:46;;;;;;;3.23;0.90;;;;;;;;;;5079488;28;20632;-73
2024/01/15 09:59:14;;;;;;;6.00;1.67;;;;;;;;;;5071912;28;20790;-71
2024/01/15 10:01:40;;;;;;;5.73;1.03;;;;;;;;;;5078337;28;20209;-72
2024/01/15 10:04:06;;;;;;;2.63;1.37;;;;;;;;;;5076553;28;20610;-72
2024/01/15 10:06:32;;;;;;;2.57;0.90;;;;;;;;;;5056762;28;20210;-72
2024/01/15 10:08:59;;;;;;;3.70;1.13;;;;;;;;;;5074568;28;20683;-71
2024/01/15 10:11:25;;;;;;;2.07;1.00;;;;;;;;;;5075384;28;20217;-74
2024/01/15 10:13:52;;;;;;;3.27;0.97;;;;;;;;;;5073063;28;20246;-74
2024/01/15 10:16:19;;;;;;;3.17;0.90;;;;;;;;;;5072934;28;20854;-70
2024/01/15 10:18:45;;;;;;;7.20;1.17;;;;;;;;;;5072976;28;20297;-73
2024/01/15 10:21:11;;;;;;;6.77;1.70;;;;;;;;;;5056505;28;20300;-73
2024/01/15 10:23:37;;;;;;;5.10;1.30;;;;;;;;;;5077631;28;20173;-72
2024/01/15 10:26:06;;;;;;;4.87;1.83;;;;;;;;;;5054123;28;20210;-73
2024/01/15 10:28:32;;;;;;;2.70;1.67;;;;;;;;;;5068273;28;20211;-74
2024/01/15 10:30:59;;;;;;;5.73;1.10;;;;;;;;;;5076487;28;20304;-73
2024/01/15 10:33:28;;;;;;;7.60;3.20;;;;;;;;;;5057370;28;20186;-72
2024/01/15 10:35:58;;;;;;;3.60;1.13;;;;;;;;;;5060910;28;20178;-73
2024/01/15 10:38:24;;;;;;;1.87;1.00;;;;;;;;;;5078131;28;20500;-72
2024/01/15 10:40:54;;;;;;;2.97;0.90;;;;;;;;;;5077799;28;20215;-72
2024/01/15 10:43:21;;;;;;;2.30;1.03;;;;;;;;;;5059297;28;20290;-72
2024/01/15 10:45:47;;;;;;;2.70;0.87;;;;;;;;;;5074471;28;20210;-73
2024/01/15 10:48:13;;;;;;;2.47;0.90;;;;;;;;;;5072822;28;20638;-73
2024/01/15 10:50:39;;;;;;;4.77;0.87;;;;;;;;;;5061198;28;20193;-72
2024/01/15 10:53:06;;;;;;;5.13;1.40;;;;;;;;;;5078836;28;20210;-73
2024/01/15 10:55:34;;;;;;;1.23;0.60;;;;;;;;;;5061042;28;20326;-73
2024/01/15 10:58:00;;;;;;;1.67;0.87;;;;;;;;;;5081103;28;20220;-73
2024/01/15 11:00:26;;;;;;;2.10;0.93;;;;;;;;;;5074917;28;20195;-72
2024/01/15 11:02:56;;;;;;;1.97;0.70;;;;;;;;;;5073881;28;20293;-72
2024/01/15 11:05:22;;;;;;;2.37;0.80;;;;;;;;;;5079292;28;20207;-74
2024/01/15 11:07:49;;;;;;;2.47;0.77;;;;;;;;;;5062578;28;20255;-73
2024/01/15 11:10:35;;;;;;;0.43;0.40;;;;;;;;;;5076948;28;20211;-73
2024/01/15 11:13:02;;;;;;;1.37;0.80;;;;;;;;;;5067634;28;20214;-73
2024/01/15 11:15:29;;;;;;;1.10;0.87;;;;;;;;;;5077839;28;20291;-73
2024/01/15 11:18:03;;;;;;;1.90;0.50;;;;;;;;;;5081307;28;20179;-73
2024/01/15 11:20:30;;;;;;;1.70;0.67;;;;;;;;;;5070017;28;20206;-73
2024/01/15 11:22:59;;;;;;;2.73;0.53;;;;;;;;;;5080872;28;20309;-73
2024/01/15 11:25:25;;;;;;;1.67;0.73;;;;;;;;;;5075334;28;20211;-74
2024/01/15 11:27:52;;;;;;;1.63;1.10;;;;;;;;;;5064653;28;20213;-74
2024/01/15 11:30:19;;;;;;;0.70;0.60;;;;;;;;;;5075620;28;20703;-72
2024/01/15 11:32:46;;;;;;;1.03;0.70;;;;;;;;;;5077471;28;20228;-72
2024/01/15 11:35:14;;;;;;;1.03;0.53;;;;;;;;;;5079163;28;20203;-73
2024/01/15 11:37:54;;;;;;;2.80;0.70;;;;;;;;;;5076896;28;20203;-73
2024/01/15 11:40:26;;;;;;;2.87;0.60;;;;;;;;;;5073603;28;20240;-72
2024/01/15 11:42:52;;;;;;;2.77;0.97;;;;;;;;;;5078864;28;20343;-73
2024/01/15 11:45:22;;;;;;;2.43;0.80;;;;;;;;;;5077826;28;20182;-74
2024/01/15 11:47:51;;;;;;;1.17;0.80;;;;;;;;;;5080269;28;20676;-71
2024/01/15 11:50:17;;;;;;;4.80;1.20;;;;;;;;;;5076811;28;20234;-71
2024/01/15 11:52:45;;;;;;;1.63;1.00;;;;;;;;;;5078220;28;20210;-72
2024/01/15 11:55:28;;;;;;;2.50;1.00;;;;;;;;;;5079010;28;20213;-73
2024/01/15 11:57:54;;;;;;;3.47;1.03;;;;;;;;;;5053375;28;20217;-72
2024/01/15 12:00:21;;;;;;;3.13;0.93;;;;;;;;;;5078487;28;20199;-72
2024/01/15 12:02:48;;;;;;;1.40;0.80;;;;;;;;;;5082449;28;20194;-72
2024/01/15 12:05:18;;;;;;;2.30;0.87;;;;;;;;;;5076629;28;20213;-70
2024/01/15 12:07:46;;;;;;;3.60;0.90;;;;;;;;;;5076731;28;20216;-74
2024/01/15 12:10:19;;;;;;;1.80;0.80;;;;;;;;;;5077412;28;20660;-72
2024/01/15 12:12:48;;;;;;;0.93;0.70;;;;;;;;;;5077871;28;20222;-72
2024/01/15 12:15:15;;;;;;;0.87;0.50;;;;;;;;;;5075571;28;20185;-71
2024/01/15 12:17:41;;;;;;;3.20;0.60;;;;;;;;;;5075286;28;20663;-72
2024/01/15 12:20:07;;;;;;;1.23;0.70;;;;;;;;;;5079330;28;20230;-73
2024/01/15 12:22:33;;;;;;;1.87;1.03;;;;;;;;;;5076051;28;20300;-72
2024/01/15 12:24:59;;;;;;;1.87;1.00;;;;;;;;;;5073520;28;20316;-72
2024/01/15 12:27:26;;;;;;;1.10;0.90;;;;;;;;;;5056590;28;20193;-70
2024/01/15 12:29:53;;;;;;;1.77;1.17;;;;;;;;;;5075261;28;20256;-73
2024/01/15 12:32:21;;;;;;;0.80;0.60;;;;;;;;;;5075801;28;20270;-72
2024/01/15 12:34:47;;;;;;;2.00;1.00;;;;;;;;;;5078903;28;20308;-72
2024/01/15 12:37:13;;;;;;;0.70;0.70;;;;;;;;;;5080393;28;20555;-73
2024/01/15 12:39:39;;;;;;;1.07;0.73;;;;;;;;;;5073078;28;20307;-72
2024/01/15 12:42:05;;;;;;;3.23;1.07;;;;;;;;;;5077372;28;20295;-72
2024/01/15 12:44:31;;;;;;;0.63;0.60;;;;;;;;;;5076205;28;20210;-72
2024/01/15 12:46:58;;;;;;;4.23;0.73;;;;;;;;;;5061729;28;20714;-71
2024/01/15 12:49:24;;;;;;;1.77;1.00;;;;;;;;;;5073596;28;20238;-73
2024/01/15 12:52:09;;;;;;;0.80;0.73;;;;;;;;;;5076837;28;20262;-72
2024/01/15 12:54:35;;;;;;;3.63;1.03;;;;;;;;;;5075833;28;20771;-71
2024/01/15 12:57:01;;;;;;;1.53;0.87;;;;;;;;;;5078150;28;20191;-72
2024/01/15 12:59:28;;;;;;;2.00;1.07;;;;;;;;;;5056745;28;20203;-70
2024/01/15 13:01:55;;;;;;;3.80;0.90;;;;;;;;;;5075284;28;20712;-72
2024/01/15 13:04:21;;;;;;;1.63;1.00;;;;;;;;;;5057204;28;20257;-72
2024/01/15 13:06:47;;;;;;;1.23;0.80;;;;;;;;;;5076783;28;20210;-72
2024/01/15 13:09:14;;;;;;;0.97;0.80;;;;;;;;;;5076109;28;20606;-73
2024/01/15 13:11:40;;;;;;;1.77;0.70;;;;;;;;;;5076205;28;20223;-72
2024/01/15 13:14:06;;;;;;;0.83;0.60;;;;;;;;;;5078704;28;20210;-72
2024/01/15 13:16:32;;;;;;;0.87;0.70;;;;;;;;;;5058941;28;20822;-72
2024/01/15 13:18:58;;;;;;;2.07;1.07;;;;;;;;;;5075091;28;20266;-72
2024/01/15 13:21:24;;;;;;;2.10;1.23;;;;;;;;;;5051065;28;20705;-72
2024/01/15 13:23:51;;;;;;;1.53;0.77;;;;;;;;;;5058487;28;20593;-72
2024/01/15 13:26:19;;;;;;;2.60;0.90;;;;;;;;;;5078057;28;20238;-71
2024/01/15 13:28:45;;;;;;;1.50;1.00;;;;;;;;;;5059736;28;20669;-72
2024/01/15 13:31:11;;;;;;;1.60;0.80;;;;;;;;;;5075402;28;20240;-74
2024/01/15 13:33:37;;;;;;;1.43;0.90;;;;;;;;;;5075514;28;20248;-72
2024/01/15 13:36:03;;;;;;;0.93;0.63;;;;;;;;;;5073918;28;20193;-74
2024/01/15 13:38:34;;;;;;;2.13;0.87;;;;;;;;;;5064191;28;20222;-74
2024/01/15 13:41:00;;;;;;;1.30;0.77;;;;;;;;;;5069859;28;20208;-71
2024/01/15 13:43:26;;;;;;;1.23;0.83;;;;;;;;;;5077601;28;20321;-72
2024/01/15 13:45:54;;;;;;;2.70;0.90;;;;;;;;;;5056222;28;20622;-72
2024/01/15 13:48:20;;;;;;;2.27;0.83;;;;;;;;;;5075750;28;20708;-72
2024/01/15 13:50:46;;;;;;;4.10;0.63;;;;;;;;;;5075553;28;20182;-71
2024/01/15 13:53:12;;;;;;;4.03;1.13;;;;;;;;;;5076937;28;20229;-73
2024/01/15 13:55:38;;;;;;;1.43;0.70;;;;;;;;;;5074781;28;20747;-70
2024/01/15 13:58:05;;;;;;;2.10;1.20;;;;;;;;;;5075674;28;20213;-73
2024/01/15 14:00:31;;;;;;;2.03;0.80;;;;;;;;;;5077592;28;20214;-74
2024/01/15 14:02:57;;;;;;;1.90;1.30;;;;;;;;;;5078893;28;20277;-70
2024/01/15 14:05:24;;;;;;;4.47;1.40;;;;;;;;;;5073712;28;20859;-72
2024/01/15 14:07:50;;;;;;;4.50;0.90;;;;;;;;;;5078246;28;20212;-73
2024/01/15 14:10:16;;;;;;;5.33;1.20;;;;;;;;;;5077884;28;20288;-71
2024/01/15 14:12:42;;;;;;;1.03;0.70;;;;;;;;;;5079568;28;20847;-72
2024/01/15 14:15:08;;;;;;;3.40;0.87;;;;;;;;;;5080976;28;20553;-70
2024/01/15 14:17:35;;;;;;;2.03;1.00;;;;;;;;;;5076485;28;20192;-72
2024/01/15 14:20:01;;;;;;;2.03;1.30;;;;;;;;;;5060257;28;20862;-72
2024/01/15 14:22:27;;;;;;;4.33;1.13;;;;;;;;;;5069087;28;20234;-71
2024/01/15 14:24:53;;;;;;;1.87;1.00;;;;;;;;;;5071137;28;20888;-72
2024/01/15 14:27:19;;;;;;;4.67;0.83;;;;;;;;;;5070721;28;20200;-72
2024/01/15 14:29:46;;;;;;;0.90;0.60;;;;;;;;;;5074079;28;20532;-74
2024/01/15 14:32:12;;;;;;;3.47;0.97;;;;;;;;;;5067335;28;20278;-72
2024/01/15 14:34:38;;;;;;;5.40;1.00;;;;;;;;;;5072044;28;20212;-70
2024/01/15 14:37:04;;;;;;;1.17;0.60;;;;;;;;;;5075445;28;20225;-74